Time;durP1;ratioP1;P1;durP2;ratioP2;P2;SDS_P1;SDS_P2;PMS_P1;PMS_P2;Temp;Humidity;BMP_temperature;BMP_pressure;BME280_temperature;BME280_humidity;BME280_pressure;Samples;Min_cycle;Max_cycle;Signal;HPM_P1;HPM_P2
2023/08/28 00:01:40;;;;;;;3.10;1.38;;;;;;;23.68;47.66;99262.84;4955814;28;20113;-89
2023/08/28 00:04:05;;;;;;;5.75;1.52;;;;;;;23.81;47.96;99286.13;4960969;28;20034;-89
2023/08/28 00:06:31;;;;;;;3.67;1.02;;;;;;;23.73;47.78;99267.88;4990021;28;20034;-89
2023/08/28 00:08:56;;;;;;;1.75;1.02;;;;;;;23.59;47.79;99245.53;4990247;28;20037;-89
2023/08/28 00:11:22;;;;;;;7.38;1.65;;;;;;;23.87;47.69;99280.31;4974346;28;20417;-89
2023/08/28 00:13:47;;;;;;;5.38;2.00;;;;;;;23.83;48.43;99271.56;4968031;28;20165;-90
2023/08/28 00:16:13;;;;;;;3.25;2.40;;;;;;;23.82;48.98;99283.31;4972624;28;20046;-89
2023/08/28 00:18:38;;;;;;;1.83;1.60;;;;;;;23.98;49.57;99303.72;4992239;28;20473;-90
2023/08/28 00:21:06;;;;;;;4.93;1.88;;;;;;;23.78;50.37;99265.69;4990765;28;20045;-89
2023/08/28 00:23:32;;;;;;;3.15;1.23;;;;;;;23.48;50.89;99229.38;4984021;28;20260;-89
2023/08/28 00:25:59;;;;;;;2.33;1.70;;;;;;;23.73;50.98;99276.81;4971948;28;20131;-88
2023/08/28 00:28:24;;;;;;;2.00;1.20;;;;;;;23.87;50.82;99297.31;4972443;28;20027;-89
2023/08/28 00:30:50;;;;;;;2.25;1.23;;;;;;;23.92;50.71;99284.34;4970975;28;20045;-88
2023/08/28 00:33:15;;;;;;;1.10;0.95;;;;;;;23.66;51.39;99272.00;4973117;28;20126;-88
2023/08/28 00:35:42;;;;;;;7.07;1.92;;;;;;;23.68;51.10;99267.34;4973137;28;20420;-88
2023/08/28 00:38:09;;;;;;;5.20;1.83;;;;;;;24.00;51.09;99312.53;4981485;28;20034;-88
2023/08/28 00:40:41;;;;;;;10.50;3.65;;;;;;;23.62;50.88;99219.34;4990897;28;20027;-89
2023/08/28 00:43:08;;;;;;;2.38;1.30;;;;;;;23.82;51.26;99251.00;4990653;28;20044;-89
2023/08/28 00:45:37;;;;;;;1.98;1.65;;;;;;;23.88;51.18;99280.19;4990331;28;20037;-89
2023/08/28 00:48:03;;;;;;;2.35;1.35;;;;;;;23.93;51.58;99280.69;4982302;28;20143;-88
2023/08/28 00:50:29;;;;;;;4.10;1.58;;;;;;;23.88;51.47;99269.44;4984744;28;20034;-89
2023/08/28 00:52:54;;;;;;;4.10;1.95;;;;;;;23.51;51.42;99239.03;4990182;28;20085;-89
2023/08/28 00:55:20;;;;;;;2.70;1.20;;;;;;;23.96;50.73;99276.91;4988770;28;20030;-89
2023/08/28 00:57:45;;;;;;;4.57;1.30;;;;;;;23.67;51.24;99236.03;4989239;28;20118;-89
2023/08/28 01:00:12;;;;;;;2.25;2.05;;;;;;;23.50;51.81;99248.09;4984371;28;20035;-89
2023/08/28 01:02:40;;;;;;;6.50;1.98;;;;;;;23.70;52.15;99277.03;4956721;28;20458;-89
2023/08/28 01:05:06;;;;;;;2.85;1.38;;;;;;;23.70;51.83;99273.50;4976714;28;20440;-90
2023/08/28 01:07:57;;;;;;;5.35;2.22;;;;;;;23.49;51.70;99265.22;5007137;28;20034;-90
2023/08/28 01:10:34;;;;;;;2.90;2.08;;;;;;;23.40;52.01;99297.22;4977414;28;20038;-89
2023/08/28 01:13:27;;;;;;;1.60;1.33;;;;;;;23.34;52.27;99289.63;4958132;28;20074;-90
2023/08/28 01:15:54;;;;;;;1.30;1.20;;;;;;;23.07;51.93;99255.66;4976826;28;20037;-89
2023/08/28 01:18:21;;;;;;;2.15;1.25;;;;;;;23.24;52.51;99300.19;4976813;28;20027;-89
2023/08/28 01:20:49;;;;;;;6.68;2.28;;;;;;;22.81;52.31;99229.84;4978919;28;20041;-89
2023/08/28 01:23:24;;;;;;;2.85;1.83;;;;;;;23.13;52.51;99286.66;4986421;28;20030;-89
2023/08/28 01:25:50;;;;;;;3.78;2.00;;;;;;;22.71;52.68;99222.44;4994243;28;20484;-88
2023/08/28 01:28:16;;;;;;;2.83;1.70;;;;;;;22.53;53.35;99215.72;4994280;28;20520;-88
2023/08/28 01:30:42;;;;;;;1.05;0.88;;;;;;;22.35;53.09;99221.44;4992448;28;20041;-88
2023/08/28 01:33:07;;;;;;;1.95;1.38;;;;;;;22.48;53.29;99234.84;4993380;28;20135;-89
2023/08/28 01:35:34;;;;;;;1.80;1.35;;;;;;;22.44;53.50;99216.38;4993561;28;20057;-90
2023/08/28 01:38:19;;;;;;;2.15;1.70;;;;;;;22.49;53.89;99233.91;4993786;28;20030;-87
2023/08/28 01:41:09;;;;;;;3.13;1.25;;;;;;;22.75;53.99;99270.59;4987171;28;20031;-88
2023/08/28 01:43:47;;;;;;;2.50;1.65;;;;;;;22.29;54.25;99197.69;4993112;28;20042;-89
2023/08/28 01:46:13;;;;;;;2.15;1.45;;;;;;;22.75;54.44;99263.38;4972601;28;20053;-89
2023/08/28 01:48:52;;;;;;;1.75;1.52;;;;;;;22.56;54.35;99233.47;4975508;28;20062;-89
2023/08/28 01:51:18;;;;;;;1.48;1.00;;;;;;;22.72;54.17;99255.56;4968319;28;20105;-89
2023/08/28 01:53:54;;;;;;;20.42;2.03;;;;;;;22.53;54.91;99237.22;4973855;28;20038;-90
2023/08/28 01:56:21;;;;;;;2.90;1.58;;;;;;;22.78;55.02;99263.16;4973685;28;20053;-89
2023/08/28 01:58:51;;;;;;;1.55;1.42;;;;;;;22.58;54.79;99253.84;4973596;28;20157;-90
2023/08/28 02:01:17;;;;;;;2.40;1.98;;;;;;;22.65;55.52;99251.59;4958512;28;20568;-89
2023/08/28 02:03:43;;;;;;;3.30;2.10;;;;;;;22.72;55.46;99255.56;4975016;28;20051;-89
2023/08/28 02:06:10;;;;;;;1.85;1.55;;;;;;;22.69;55.71;99255.78;4973279;28;20255;-88
2023/08/28 02:08:36;;;;;;;1.50;1.40;;;;;;;22.47;55.97;99224.22;4955287;28;20037;-88
2023/08/28 02:11:03;;;;;;;3.90;2.20;;;;;;;22.68;56.05;99248.69;4954612;28;20132;-88
2023/08/28 02:13:30;;;;;;;3.80;1.63;;;;;;;22.60;55.94;99229.56;4980167;28;20058;-88
2023/08/28 02:15:55;;;;;;;2.38;1.45;;;;;;;22.67;55.54;99239.75;4992211;28;20022;-88
2023/08/28 02:18:21;;;;;;;1.67;1.15;;;;;;;22.63;55.77;99248.16;4994215;28;20165;-89
2023/08/28 02:20:47;;;;;;;1.75;1.20;;;;;;;22.69;55.81;99253.97;4992416;28;20481;-89
2023/08/28 02:23:12;;;;;;;3.42;2.20;;;;;;;22.33;56.12;99220.69;4958457;28;20046;-88
2023/08/28 02:25:42;;;;;;;2.88;1.77;;;;;;;22.25;55.66;99187.25;4993524;28;20475;-88
2023/08/28 02:28:07;;;;;;;3.60;1.70;;;;;;;22.49;56.11;99260.78;4992632;28;20046;-88
2023/08/28 02:30:33;;;;;;;2.05;1.73;;;;;;;22.19;56.52;99212.72;5007755;28;20412;-89
2023/08/28 02:33:01;;;;;;;4.90;2.25;;;;;;;22.25;56.71;99249.91;4991485;28;20027;-88
2023/08/28 02:35:26;;;;;;;3.35;1.55;;;;;;;22.13;57.33;99242.69;4956860;28;20524;-89
2023/08/28 02:37:51;;;;;;;4.30;2.17;;;;;;;22.20;56.76;99224.31;4975687;28;20116;-88
2023/08/28 02:40:17;;;;;;;5.53;2.13;;;;;;;22.26;56.29;99237.31;4976808;28;20093;-88
2023/08/28 02:42:42;;;;;;;2.70;1.83;;;;;;;22.28;56.40;99249.69;4972825;28;20056;-88
2023/08/28 02:45:09;;;;;;;1.80;1.23;;;;;;;22.20;56.15;99218.94;4977980;28;20042;-88
2023/08/28 02:47:34;;;;;;;2.80;1.77;;;;;;;22.16;56.37;99215.63;4992037;28;20026;-89
2023/08/28 02:49:59;;;;;;;2.20;1.58;;;;;;;22.02;56.12;99207.69;4992283;28;20038;-88
2023/08/28 02:52:25;;;;;;;3.65;1.55;;;;;;;22.09;56.33;99203.59;4974114;28;20117;-88
2023/08/28 02:54:50;;;;;;;1.45;0.95;;;;;;;22.08;56.15;99213.47;4988902;28;20583;-88
2023/08/28 02:57:16;;;;;;;5.18;2.35;;;;;;;21.76;56.39;99180.81;4972498;28;20089;-89
2023/08/28 02:59:41;;;;;;;1.73;1.15;;;;;;;21.98;56.04;99223.13;4978305;28;20026;-89
2023/08/28 03:02:07;;;;;;;2.40;1.58;;;;;;;21.94;55.38;99209.06;4974447;28;20496;-85
2023/08/28 03:04:34;;;;;;;2.35;1.80;;;;;;;21.99;55.42;99240.97;4991882;28;20380;-86
2023/08/28 03:07:00;;;;;;;2.47;1.83;;;;;;;21.90;55.49;99242.47;4976778;28;20122;-85
2023/08/28 03:09:25;;;;;;;3.78;2.15;;;;;;;21.79;56.22;99240.50;4972825;28;20058;-85
2023/08/28 03:11:52;;;;;;;1.83;1.45;;;;;;;21.69;56.30;99206.38;4972314;28;20047;-86
2023/08/28 03:14:17;;;;;;;1.67;1.38;;;;;;;21.75;56.59;99206.81;4972447;28;20133;-84
2023/08/28 03:16:43;;;;;;;1.02;1.00;;;;;;;21.82;57.03;99229.56;4962143;28;20117;-86
2023/08/28 03:19:08;;;;;;;1.63;1.25;;;;;;;21.49;57.30;99194.28;4985095;28;20069;-86
2023/08/28 03:21:34;;;;;;;2.13;1.88;;;;;;;21.55;57.58;99218.03;4990526;28;20117;-87
2023/08/28 03:24:00;;;;;;;2.70;2.03;;;;;;;21.69;57.54;99222.47;4974523;28;20033;-88
2023/08/28 03:26:26;;;;;;;1.45;1.25;;;;;;;21.59;57.65;99190.03;4990077;28;20030;-89
2023/08/28 03:28:51;;;;;;;2.22;1.48;;;;;;;21.71;57.37;99213.34;4974219;28;20031;-92
2023/08/28 03:31:17;;;;;;;2.38;1.50;;;;;;;21.44;57.40;99189.22;4991502;28;20034;-91
2023/08/28 03:33:43;;;;;;;7.38;2.42;;;;;;;21.56;57.80;99193.78;4991066;28;20032;-92
2023/08/28 03:36:08;;;;;;;2.33;1.77;;;;;;;21.42;58.02;99167.88;4991368;28;20038;-88
2023/08/28 03:38:34;;;;;;;5.25;2.08;;;;;;;21.61;58.62;99202.41;4981643;28;20022;-88
2023/08/28 03:40:59;;;;;;;3.28;2.47;;;;;;;21.52;59.07;99210.19;4990845;28;20018;-91
2023/08/28 03:43:25;;;;;;;9.30;1.92;;;;;;;21.67;58.96;99224.41;4990243;28;20408;-88
2023/08/28 03:45:50;;;;;;;2.78;1.63;;;;;;;21.74;59.09;99231.94;4990128;28;20425;-89
2023/08/28 03:48:15;;;;;;;2.55;2.33;;;;;;;21.57;58.83;99224.19;4986204;28;20041;-88
2023/08/28 03:50:41;;;;;;;6.40;2.42;;;;;;;21.57;58.79;99208.09;4970503;28;20413;-91
2023/08/28 03:53:07;;;;;;;3.00;1.52;;;;;;;21.60;58.51;99222.13;4971004;28;20034;-90
2023/08/28 03:55:32;;;;;;;1.77;1.10;;;;;;;21.51;58.34;99209.34;4971401;28;20529;-91
2023/08/28 03:58:02;;;;;;;12.35;1.13;;;;;;;21.18;57.36;99172.22;4971671;28;20089;-90
2023/08/28 04:00:27;;;;;;;7.47;1.63;;;;;;;21.43;57.10;99242.03;4954990;28;20050;-86
2023/08/28 04:02:53;;;;;;;2.15;1.85;;;;;;;21.08;58.73;99242.53;4972109;28;20133;-88
2023/08/28 04:05:19;;;;;;;7.32;1.80;;;;;;;20.75;59.03;99206.25;4990471;28;20530;-88
2023/08/28 04:07:44;;;;;;;4.38;2.67;;;;;;;20.95;58.92;99246.16;4984581;28;20460;-88
2023/08/28 04:10:10;;;;;;;2.85;2.28;;;;;;;21.14;58.22;99246.66;4986459;28;20042;-88
2023/08/28 04:12:36;;;;;;;1.55;1.40;;;;;;;21.11;58.06;99234.28;4990423;28;20058;-88
2023/08/28 04:15:03;;;;;;;1.30;1.20;;;;;;;21.26;58.26;99243.16;4990157;28;20034;-88
2023/08/28 04:17:29;;;;;;;1.60;1.30;;;;;;;21.15;58.68;99243.03;4989641;28;20046;-87
2023/08/28 04:19:55;;;;;;;3.25;2.08;;;;;;;21.53;58.75;99277.19;4971541;28;20129;-88
2023/08/28 04:22:21;;;;;;;1.73;1.25;;;;;;;21.59;58.87;99276.75;4988664;28;20555;-88
2023/08/28 04:24:49;;;;;;;2.65;1.50;;;;;;;21.52;59.12;99251.31;4972724;28;20096;-88
2023/08/28 04:27:15;;;;;;;1.90;1.38;;;;;;;21.36;59.71;99235.34;4989405;28;20053;-88
2023/08/28 04:29:41;;;;;;;3.15;1.80;;;;;;;21.64;59.49;99246.94;4988295;28;20469;-87
2023/08/28 04:32:06;;;;;;;2.05;1.83;;;;;;;21.57;59.36;99230.41;4983327;28;20042;-88
2023/08/28 04:34:32;;;;;;;1.35;0.88;;;;;;;21.37;59.93;99234.41;4992861;28;20493;-88
2023/08/28 04:36:57;;;;;;;3.75;1.90;;;;;;;21.84;59.78;99293.88;4991837;28;20037;-87
2023/08/28 04:39:23;;;;;;;3.03;2.25;;;;;;;21.53;59.54;99222.66;4990702;28;20050;-87
2023/08/28 04:41:49;;;;;;;4.22;2.58;;;;;;;21.84;59.50;99279.63;4982767;28;20442;-88
2023/08/28 04:44:15;;;;;;;2.88;2.50;;;;;;;21.52;59.52;99219.13;4989159;28;20049;-87
2023/08/28 04:46:41;;;;;;;4.38;2.90;;;;;;;21.62;59.17;99212.16;4992845;28;20046;-87
2023/08/28 04:49:06;;;;;;;2.42;2.22;;;;;;;21.90;58.40;99226.34;4975297;28;20027;-88
2023/08/28 04:51:32;;;;;;;3.47;1.95;;;;;;;21.77;58.73;99215.63;4975728;28;20038;-87
2023/08/28 04:53:57;;;;;;;2.95;2.45;;;;;;;21.94;58.63;99232.41;4992464;28;20026;-87
2023/08/28 04:56:23;;;;;;;6.10;1.48;;;;;;;21.88;58.38;99200.59;4992892;28;20069;-86
2023/08/28 04:58:48;;;;;;;7.93;2.38;;;;;;;22.06;57.53;99218.09;4992499;28;20022;-89
2023/08/28 05:01:14;;;;;;;3.28;1.05;;;;;;;22.29;57.71;99231.72;4993133;28;20558;-89
2023/08/28 05:03:39;;;;;;;3.45;1.85;;;;;;;22.41;57.22;99211.22;4970141;28;20037;-88
2023/08/28 05:06:05;;;;;;;1.10;0.98;;;;;;;22.49;57.49;99207.03;4983508;28;20084;-89
2023/08/28 05:08:30;;;;;;;2.33;1.45;;;;;;;22.66;57.39;99229.13;4992586;28;20105;-87
2023/08/28 05:10:56;;;;;;;3.15;1.83;;;;;;;22.96;57.04;99241.31;4974975;28;20061;-87
2023/08/28 05:13:21;;;;;;;3.95;1.67;;;;;;;23.08;56.73;99253.84;4991509;28;20049;-88
2023/08/28 05:15:47;;;;;;;2.70;1.67;;;;;;;23.04;56.52;99231.69;4990851;28;20042;-87
2023/08/28 05:18:14;;;;;;;3.33;2.13;;;;;;;23.20;56.82;99233.25;4989615;28;20030;-87
2023/08/28 05:20:41;;;;;;;3.58;2.25;;;;;;;23.52;56.37;99273.03;4989749;28;20173;-88
2023/08/28 05:23:06;;;;;;;3.92;2.78;;;;;;;23.44;56.03;99224.34;4993159;28;20105;-89
2023/08/28 05:25:32;;;;;;;4.18;2.33;;;;;;;23.80;55.66;99252.09;4987552;28;20520;-88
2023/08/28 05:27:57;;;;;;;3.42;1.27;;;;;;;23.64;55.85;99217.44;4989769;28;20022;-81
2023/08/28 05:30:23;;;;;;;2.58;1.80;;;;;;;23.82;55.63;99231.28;4989841;28;20381;-82
2023/08/28 05:32:49;;;;;;;2.20;1.33;;;;;;;23.91;55.98;99263.81;4991906;28;20046;-80
2023/08/28 05:35:14;;;;;;;4.45;2.25;;;;;;;24.32;54.99;99256.16;4992707;28;20469;-81
2023/08/28 05:37:40;;;;;;;3.15;1.98;;;;;;;24.47;54.81;99262.16;4993386;28;20050;-81
2023/08/28 05:40:06;;;;;;;2.28;1.63;;;;;;;24.24;55.12;99239.72;4988311;28;20030;-81
2023/08/28 05:42:32;;;;;;;2.25;1.80;;;;;;;24.51;54.44;99271.69;4979955;28;20034;-84
2023/08/28 05:44:57;;;;;;;1.55;1.13;;;;;;;24.40;54.73;99272.56;4973148;28;20039;-82
2023/08/28 05:47:23;;;;;;;2.85;2.15;;;;;;;24.71;53.57;99258.50;4980445;28;20507;-82
2023/08/28 05:49:48;;;;;;;2.40;1.90;;;;;;;25.10;52.76;99259.78;4992099;28;20475;-82
2023/08/28 05:52:14;;;;;;;3.05;1.65;;;;;;;25.20;52.63;99249.09;4991836;28;20038;-83
2023/08/28 05:54:39;;;;;;;6.78;1.88;;;;;;;25.38;51.53;99238.63;4992130;28;20088;-82
2023/08/28 05:57:04;;;;;;;2.35;1.88;;;;;;;25.57;50.28;99232.53;4991182;28;20026;-88
2023/08/28 05:59:30;;;;;;;11.02;1.52;;;;;;;25.17;50.84;99195.38;4991650;28;20027;-87
2023/08/28 06:01:55;;;;;;;3.30;2.67;;;;;;;25.87;49.63;99272.28;4973910;28;20042;-87
2023/08/28 06:04:21;;;;;;;2.05;1.77;;;;;;;25.92;49.46;99207.91;4992035;28;20022;-88
2023/08/28 06:06:46;;;;;;;2.10;1.38;;;;;;;26.59;48.20;99239.97;4987164;28;20034;-88
2023/08/28 06:09:12;;;;;;;2.08;1.55;;;;;;;26.68;47.43;99265.34;4991397;28;20485;-88
2023/08/28 06:11:37;;;;;;;3.65;1.90;;;;;;;26.58;47.16;99211.22;4991632;28;20390;-88
2023/08/28 06:14:03;;;;;;;2.17;1.23;;;;;;;27.04;45.93;99247.66;4991447;28;20034;-88
2023/08/28 06:16:28;;;;;;;3.45;1.35;;;;;;;27.26;45.61;99257.38;4989948;28;20038;-88
2023/08/28 06:18:54;;;;;;;6.43;2.65;;;;;;;27.57;45.30;99268.13;4990564;28;20053;-87
2023/08/28 06:21:20;;;;;;;4.07;2.17;;;;;;;27.86;44.65;99253.72;4989936;28;20033;-88
2023/08/28 06:23:45;;;;;;;3.70;2.10;;;;;;;27.90;45.50;99276.84;4990152;28;20516;-88
2023/08/28 06:26:11;;;;;;;5.50;1.92;;;;;;;27.95;43.95;99258.31;4990933;28;20449;-90
2023/08/28 06:28:36;;;;;;;4.60;2.00;;;;;;;27.95;44.59;99277.28;4991193;28;20036;-89
2023/08/28 06:31:02;;;;;;;4.50;2.42;;;;;;;28.43;42.98;99263.75;4991104;28;20037;-88
2023/08/28 06:33:28;;;;;;;4.18;2.20;;;;;;;28.90;42.00;99236.56;4991173;28;20041;-88
2023/08/28 06:35:53;;;;;;;3.50;1.70;;;;;;;29.28;41.66;99229.19;4991499;28;20026;-89
2023/08/28 06:38:19;;;;;;;6.45;1.75;;;;;;;29.01;42.39;99238.22;4974168;28;20088;-89
2023/08/28 06:40:52;;;;;;;1.48;0.77;;;;;;;29.44;41.40;99239.34;4991120;28;20112;-89
2023/08/28 06:43:17;;;;;;;3.63;2.28;;;;;;;29.96;40.41;99249.50;4991317;28;20053;-90
2023/08/28 06:45:45;;;;;;;3.60;1.73;;;;;;;29.98;39.65;99242.91;4990307;28;20065;-89
2023/08/28 06:48:10;;;;;;;3.10;1.88;;;;;;;29.55;40.14;99233.72;4992674;28;20026;-90
2023/08/28 06:50:36;;;;;;;7.55;2.00;;;;;;;30.22;40.29;99260.41;5003860;28;20120;-88
2023/08/28 06:53:01;;;;;;;2.22;1.45;;;;;;;29.88;39.87;99209.53;4988584;28;20043;-89
2023/08/28 06:55:27;;;;;;;1.95;1.35;;;;;;;29.90;40.04;99252.88;4986874;28;20035;-89
2023/08/28 06:57:53;;;;;;;2.97;1.80;;;;;;;29.99;39.88;99250.03;4982100;28;20041;-91
2023/08/28 07:00:19;;;;;;;3.42;2.15;;;;;;;30.04;39.84;99219.66;4988259;28;20026;-91
2023/08/28 07:02:44;;;;;;;2.72;1.65;;;;;;;29.65;40.47;99244.47;4958869;28;20465;-93
2023/08/28 07:05:10;;;;;;;4.20;2.55;;;;;;;29.86;40.58;99225.16;4971388;28;20367;-90
2023/08/28 07:07:35;;;;;;;2.15;1.23;;;;;;;30.32;38.98;99198.59;4970640;28;20031;-90
2023/08/28 07:10:01;;;;;;;3.63;2.30;;;;;;;30.81;37.91;99214.28;4972448;28;20160;-91
2023/08/28 07:12:26;;;;;;;5.07;2.08;;;;;;;30.62;37.59;99228.19;4954630;28;20042;-90
2023/08/28 07:15:10;;;;;;;2.97;2.00;;;;;;;30.97;38.44;99227.16;4971488;28;20035;-91
2023/08/28 07:17:35;;;;;;;3.43;2.47;;;;;;;30.84;38.65;99215.84;4972195;28;20105;-92
2023/08/28 07:20:02;;;;;;;12.32;2.90;;;;;;;30.92;37.55;99195.94;4953735;28;20134;-89
2023/08/28 07:22:27;;;;;;;3.45;2.53;;;;;;;30.89;37.03;99199.84;4970977;28;20053;-89
2023/08/28 07:24:53;;;;;;;5.05;2.22;;;;;;;31.00;37.00;99191.41;4972314;28;20035;-90
2023/08/28 07:27:18;;;;;;;3.53;2.38;;;;;;;31.36;37.20;99201.16;4953999;28;20034;-88
2023/08/28 07:29:44;;;;;;;2.15;1.48;;;;;;;30.71;38.06;99219.03;4971275;28;20041;-89
2023/08/28 07:32:09;;;;;;;6.25;3.47;;;;;;;30.79;37.23;99221.78;4954013;28;20026;-88
2023/08/28 07:34:35;;;;;;;3.08;1.83;;;;;;;30.82;37.06;99186.06;4971430;28;20030;-90
2023/08/28 07:37:00;;;;;;;6.20;2.10;;;;;;;31.03;36.97;99201.09;4970892;28;20073;-90
2023/08/28 07:39:26;;;;;;;5.60;2.10;;;;;;;31.76;36.50;99257.59;4953635;28;20486;-89
2023/08/28 07:41:51;;;;;;;2.72;1.80;;;;;;;31.72;34.98;99225.38;4971592;28;20038;-89
2023/08/28 07:44:17;;;;;;;4.15;1.83;;;;;;;31.82;34.96;99245.13;4969976;28;20054;-89
2023/08/28 07:46:42;;;;;;;3.33;2.67;;;;;;;31.97;36.00;99266.28;4971162;28;20438;-92
2023/08/28 07:49:07;;;;;;;7.63;2.33;;;;;;;32.52;34.39;99242.81;4971120;28;20050;-91
2023/08/28 07:51:33;;;;;;;2.53;2.03;;;;;;;32.74;33.68;99235.78;4971274;28;20035;-92
2023/08/28 07:53:59;;;;;;;2.70;2.13;;;;;;;32.93;33.17;99226.28;4970793;28;20041;-90
2023/08/28 07:56:24;;;;;;;3.03;1.77;;;;;;;32.77;34.97;99228.06;4971134;28;20031;-92
2023/08/28 07:58:51;;;;;;;5.25;2.60;;;;;;;32.75;35.25;99193.78;4953021;28;20054;-91
2023/08/28 08:01:17;;;;;;;2.20;1.58;;;;;;;33.41;33.45;99231.66;4970627;28;20037;-93
2023/08/28 08:03:42;;;;;;;2.17;1.55;;;;;;;33.60;33.10;99241.25;4953117;28;20030;-88
2023/08/28 08:06:08;;;;;;;3.72;1.38;;;;;;;32.19;35.09;99215.63;4988357;28;20460;-90
2023/08/28 08:08:33;;;;;;;3.97;2.35;;;;;;;32.61;33.71;99211.72;4993501;28;20049;-88
2023/08/28 08:10:59;;;;;;;2.35;1.65;;;;;;;32.92;33.17;99214.53;4994152;28;20041;-87
2023/08/28 08:13:24;;;;;;;3.40;2.38;;;;;;;33.13;34.26;99227.53;4993772;28;20116;-89
2023/08/28 08:15:50;;;;;;;3.40;2.45;;;;;;;33.37;32.94;99229.28;4993987;28;20022;-88
2023/08/28 08:18:16;;;;;;;4.40;2.38;;;;;;;33.96;32.69;99222.34;4994487;28;20026;-87
2023/08/28 08:20:42;;;;;;;7.47;3.08;;;;;;;34.22;31.46;99246.53;4993467;28;20438;-88
2023/08/28 08:23:07;;;;;;;5.07;2.28;;;;;;;34.17;30.15;99196.13;4993778;28;20042;-89
2023/08/28 08:25:33;;;;;;;4.50;2.83;;;;;;;34.51;31.58;99236.66;4994162;28;20030;-88
2023/08/28 08:27:58;;;;;;;3.55;2.03;;;;;;;34.28;31.62;99228.53;4993305;28;20038;-91
2023/08/28 08:30:24;;;;;;;3.88;2.30;;;;;;;34.15;31.14;99233.78;4993881;28;20100;-87
2023/08/28 08:32:49;;;;;;;4.43;2.20;;;;;;;33.79;31.97;99210.69;4984279;28;20034;-88
2023/08/28 08:35:15;;;;;;;3.17;2.15;;;;;;;33.78;31.96;99224.56;4975636;28;20027;-87
2023/08/28 08:37:40;;;;;;;6.15;1.77;;;;;;;34.12;30.91;99204.06;4978794;28;20188;-91
2023/08/28 08:40:18;;;;;;;2.30;1.85;;;;;;;34.41;30.57;99195.88;4979659;28;20053;-89
2023/08/28 08:42:44;;;;;;;3.90;2.40;;;;;;;34.37;29.95;99171.81;4983548;28;20026;-87
2023/08/28 08:45:10;;;;;;;1.88;1.50;;;;;;;34.31;29.99;99186.25;4982697;28;20042;-88
2023/08/28 08:47:37;;;;;;;4.13;1.85;;;;;;;33.98;30.14;99190.16;4980272;28;20026;-87
2023/08/28 08:50:06;;;;;;;2.40;2.20;;;;;;;33.86;29.80;99184.31;4983332;28;20432;-89
2023/08/28 08:52:35;;;;;;;3.65;2.05;;;;;;;34.20;30.30;99203.94;4986994;28;20045;-86
2023/08/28 08:55:16;;;;;;;4.57;2.10;;;;;;;34.49;30.51;99197.66;4990210;28;20049;-86
2023/08/28 08:57:43;;;;;;;6.30;2.20;;;;;;;34.49;29.91;99174.91;4972324;28;20480;-88
2023/08/28 09:00:17;;;;;;;2.13;1.55;;;;;;;34.05;29.57;99169.22;4955630;28;20452;-88
2023/08/28 09:02:43;;;;;;;2.20;1.83;;;;;;;33.71;31.62;99167.00;4973010;28;20026;-86
2023/08/28 09:05:09;;;;;;;2.63;1.90;;;;;;;33.88;30.08;99173.19;4972463;28;20441;-87
2023/08/28 09:07:37;;;;;;;2.47;1.73;;;;;;;33.77;31.60;99187.28;4972991;28;20030;-87
2023/08/28 09:10:04;;;;;;;2.20;1.35;;;;;;;34.01;29.75;99140.53;4973120;28;20099;-90
2023/08/28 09:12:30;;;;;;;2.47;1.85;;;;;;;33.53;30.47;99161.84;4973029;28;20042;-88
2023/08/28 09:14:55;;;;;;;6.35;1.90;;;;;;;33.36;30.47;99137.38;4973130;28;20074;-89
2023/08/28 09:17:26;;;;;;;2.40;1.52;;;;;;;33.59;30.72;99125.56;4973465;28;20226;-93
2023/08/28 09:19:53;;;;;;;3.42;1.70;;;;;;;33.79;30.58;99144.22;4954040;28;20066;-93
2023/08/28 09:22:25;;;;;;;2.28;1.63;;;;;;;33.81;31.08;99174.97;4973352;28;20042;-89
2023/08/28 09:24:52;;;;;;;1.90;1.50;;;;;;;34.15;30.56;99158.00;4955750;28;20039;-91
2023/08/28 09:27:18;;;;;;;2.08;1.88;;;;;;;33.87;30.42;99114.88;4956577;28;20122;-90
2023/08/28 09:29:44;;;;;;;2.90;1.48;;;;;;;33.82;32.03;99146.59;4973128;28;20359;-93
2023/08/28 09:32:10;;;;;;;2.60;1.65;;;;;;;33.71;30.67;99118.66;4975627;28;20033;-93
2023/08/28 09:34:38;;;;;;;2.88;1.95;;;;;;;33.25;31.28;99145.19;4972005;28;20486;-90
2023/08/28 09:37:04;;;;;;;3.03;1.70;;;;;;;33.25;31.24;99118.72;4972657;28;20027;-88
2023/08/28 09:39:29;;;;;;;2.63;1.63;;;;;;;33.73;31.07;99132.97;4972794;28;20101;-87
2023/08/28 09:41:55;;;;;;;3.67;1.65;;;;;;;33.29;31.18;99117.31;4972730;28;20113;-89
2023/08/28 09:44:21;;;;;;;3.30;1.88;;;;;;;33.57;30.89;99132.25;4972955;28;20482;-87
2023/08/28 09:46:48;;;;;;;3.38;1.75;;;;;;;33.72;31.31;99130.44;4972490;28;20039;-89
2023/08/28 09:49:14;;;;;;;2.75;2.00;;;;;;;33.47;31.17;99107.94;4972301;28;20067;-90
2023/08/28 09:51:42;;;;;;;2.72;1.92;;;;;;;33.57;31.98;99122.19;4972112;28;20122;-90
2023/08/28 09:54:09;;;;;;;2.20;1.48;;;;;;;33.56;31.20;99120.47;4955014;28;20412;-89
2023/08/28 09:56:36;;;;;;;4.28;2.38;;;;;;;33.40;31.33;99083.22;4972068;28;20171;-87
2023/08/28 09:59:03;;;;;;;3.20;2.25;;;;;;;33.55;31.45;99118.78;4972866;28;20354;-87
2023/08/28 10:01:34;;;;;;;3.00;1.77;;;;;;;33.48;31.34;99102.28;4972402;28;20026;-87
2023/08/28 10:04:07;;;;;;;2.70;1.70;;;;;;;33.62;31.26;99067.78;4971738;28;20027;-89
2023/08/28 10:06:39;;;;;;;2.70;1.95;;;;;;;34.09;30.73;99095.81;4954217;28;20031;-91
2023/08/28 10:09:08;;;;;;;3.58;1.77;;;;;;;33.70;30.70;99116.06;4972035;28;20027;-89
2023/08/28 10:11:39;;;;;;;4.25;2.05;;;;;;;33.35;31.61;99088.38;4954421;28;20089;-87
2023/08/28 10:14:06;;;;;;;2.75;1.85;;;;;;;33.30;31.70;99075.28;4965144;28;20416;-87
2023/08/28 10:16:37;;;;;;;3.05;1.67;;;;;;;33.66;30.78;99098.34;4972407;28;20054;-85
2023/08/28 10:19:13;;;;;;;3.45;1.77;;;;;;;33.69;31.04;99098.81;4971046;28;20027;-87
2023/08/28 10:21:40;;;;;;;2.58;1.92;;;;;;;33.76;30.83;99070.75;4971652;28;20030;-88
2023/08/28 10:24:07;;;;;;;3.40;1.75;;;;;;;33.92;31.68;99086.97;4970754;28;20097;-89
2023/08/28 10:26:34;;;;;;;2.88;1.52;;;;;;;33.68;32.25;99067.03;4971362;28;20058;-89
2023/08/28 10:29:02;;;;;;;2.45;1.80;;;;;;;33.68;30.82;99079.88;4971994;28;20027;-88
2023/08/28 10:31:29;;;;;;;2.55;1.63;;;;;;;33.76;31.10;99092.66;4968911;28;20034;-88
2023/08/28 10:33:56;;;;;;;1.52;1.15;;;;;;;34.14;30.87;99087.91;4971767;28;20102;-86
2023/08/28 10:36:23;;;;;;;3.97;1.83;;;;;;;33.95;30.03;99052.94;4954010;28;20037;-87
2023/08/28 10:38:52;;;;;;;2.33;1.48;;;;;;;34.00;30.28;99056.81;4971775;28;20030;-90
2023/08/28 10:41:19;;;;;;;8.93;2.05;;;;;;;33.88;30.94;99061.06;4953792;28;20045;-89
2023/08/28 10:43:50;;;;;;;8.18;2.10;;;;;;;33.39;31.21;99059.66;4971819;28;20023;-88
2023/08/28 10:46:16;;;;;;;2.72;2.10;;;;;;;33.49;30.97;99030.19;4971476;28;20039;-88
2023/08/28 10:48:45;;;;;;;2.75;1.73;;;;;;;33.74;31.00;99068.22;4970779;28;20034;-86
2023/08/28 10:51:12;;;;;;;5.78;2.60;;;;;;;33.57;32.16;99044.78;4970921;28;20023;-88
2023/08/28 10:53:38;;;;;;;5.80;1.70;;;;;;;33.66;30.07;99019.91;4971396;28;20031;-93
2023/08/28 10:56:05;;;;;;;5.38;1.30;;;;;;;34.00;27.41;99045.00;4971584;28;20141;-92
2023/08/28 10:58:32;;;;;;;3.90;2.08;;;;;;;34.31;28.38;99061.22;4974073;28;20046;-89
2023/08/28 11:01:17;;;;;;;3.40;1.83;;;;;;;34.37;28.38;99074.13;4986041;28;20512;-87
2023/08/28 11:03:56;;;;;;;2.92;1.98;;;;;;;34.36;30.82;99056.00;4984394;28;20543;-89
2023/08/28 11:06:39;;;;;;;1.60;1.15;;;;;;;34.27;28.64;99062.63;4969257;28;20098;-88
2023/08/28 11:09:29;;;;;;;6.65;1.55;;;;;;;34.28;29.36;99055.25;4965012;28;20034;-93
2023/08/28 11:11:57;;;;;;;5.72;1.67;;;;;;;34.13;29.23;99033.38;4990123;28;20038;-92
2023/08/28 11:14:24;;;;;;;5.70;2.08;;;;;;;34.17;28.95;99027.34;4989951;28;20034;-92
2023/08/28 11:17:14;;;;;;;2.20;1.48;;;;;;;34.22;28.69;99024.03;4972166;28;20413;-88
2023/08/28 11:19:53;;;;;;;2.90;0.93;;;;;;;34.31;26.91;99042.06;4992217;28;20512;-94
2023/08/28 11:22:46;;;;;;;10.82;2.55;;;;;;;34.35;27.85;99047.97;4972379;28;20393;-94
2023/08/28 11:25:14;;;;;;;1.45;1.17;;;;;;;33.68;28.72;98985.03;4894337;29;20071;-91
2023/08/28 11:27:46;;;;;;;1.63;0.88;;;;;;;34.25;28.92;99019.03;4878297;29;20044;-93
2023/08/28 11:30:14;;;;;;;3.38;1.75;;;;;;;34.24;28.64;99011.03;4906780;29;20041;-95
2023/08/28 11:32:43;;;;;;;1.90;1.02;;;;;;;33.96;27.64;98987.09;4897149;29;20503;-86
2023/08/28 11:35:10;;;;;;;1.13;1.02;;;;;;;33.66;27.85;98937.03;4895656;29;20179;-93